Time;durP1;ratioP1;P1;durP2;ratioP2;P2;SDS_P1;SDS_P2;PMS_P1;PMS_P2;Temp;Humidity;BMP_temperature;BMP_pressure;BME280_temperature;BME280_humidity;BME280_pressure;Samples;Min_cycle;Max_cycle;Signal;HPM_P1;HPM_P2
2022/03/28 00:00:45;;;;;;;10.02;5.13;;;;;;;;;;4955135;29;20043;-66
2022/03/28 00:03:15;;;;;;;8.90;5.10;;;;;;;;;;4955225;28;20102;-66
2022/03/28 00:05:42;;;;;;;11.90;5.30;;;;;;;;;;4954257;29;20074;-66
2022/03/28 00:08:14;;;;;;;11.32;5.10;;;;;;;;;;4955271;29;20402;-66
2022/03/28 00:10:42;;;;;;;15.15;6.82;;;;;;;;;;4955393;29;20130;-67
2022/03/28 00:16:46;;;;;;;9.52;5.53;;;;;;;;;;4955127;29;20062;-67
2022/03/28 00:19:16;;;;;;;13.27;5.72;;;;;;;;;;4954963;29;20122;-66
2022/03/28 00:21:46;;;;;;;11.95;5.20;;;;;;;;;;4955292;29;20051;-66
2022/03/28 00:24:13;;;;;;;10.88;4.38;;;;;;;;;;4955077;29;20059;-66
2022/03/28 00:26:52;;;;;;;9.60;4.63;;;;;;;;;;4955050;29;20098;-66
2022/03/28 00:29:19;;;;;;;12.98;5.10;;;;;;;;;;4954896;29;20054;-66
2022/03/28 00:31:50;;;;;;;10.20;4.68;;;;;;;;;;4937638;29;20521;-66
2022/03/28 00:34:21;;;;;;;18.30;4.68;;;;;;;;;;4955129;29;20509;-66
2022/03/28 00:36:55;;;;;;;14.57;5.85;;;;;;;;;;4955095;29;20043;-66
2022/03/28 00:39:26;;;;;;;14.07;4.72;;;;;;;;;;4957512;28;20098;-67
2022/03/28 00:41:54;;;;;;;11.82;4.55;;;;;;;;;;4959482;29;20121;-66
2022/03/28 00:44:25;;;;;;;14.77;4.95;;;;;;;;;;4958875;29;20043;-66
2022/03/28 00:46:55;;;;;;;13.00;5.18;;;;;;;;;;4959152;29;20151;-67
2022/03/28 00:49:25;;;;;;;15.50;4.80;;;;;;;;;;4958997;29;20046;-66
2022/03/28 00:51:55;;;;;;;8.75;4.72;;;;;;;;;;4958644;29;20074;-65
2022/03/28 00:54:26;;;;;;;9.20;4.95;;;;;;;;;;4958817;29;20446;-66
2022/03/28 00:56:55;;;;;;;8.10;4.53;;;;;;;;;;4958716;29;20051;-66
2022/03/28 00:59:25;;;;;;;11.70;5.13;;;;;;;;;;4958797;29;20050;-66
2022/03/28 01:01:55;;;;;;;10.85;4.63;;;;;;;;;;4958467;29;20043;-66
2022/03/28 01:04:23;;;;;;;8.95;4.43;;;;;;;;;;4958518;29;20054;-65
2022/03/28 01:06:55;;;;;;;11.32;4.82;;;;;;;;;;4958712;29;20414;-66
2022/03/28 01:09:28;;;;;;;14.63;4.63;;;;;;;;;;4958479;29;20074;-66
2022/03/28 01:11:59;;;;;;;14.40;4.38;;;;;;;;;;4958521;29;20047;-66
2022/03/28 01:14:27;;;;;;;13.13;4.88;;;;;;;;;;4958408;29;20445;-66
2022/03/28 01:19:48;;;;;;;13.23;4.50;;;;;;;;;;4958319;29;20103;-66
2022/03/28 01:22:17;;;;;;;11.77;4.90;;;;;;;;;;4958107;29;20098;-67
2022/03/28 01:24:47;;;;;;;11.30;4.90;;;;;;;;;;4957767;29;20055;-66
2022/03/28 01:27:22;;;;;;;11.75;4.47;;;;;;;;;;4958203;29;20039;-66
2022/03/28 01:29:50;;;;;;;15.48;5.55;;;;;;;;;;4957927;29;20071;-66
2022/03/28 01:32:20;;;;;;;17.80;5.30;;;;;;;;;;4958014;29;20055;-66
2022/03/28 01:34:49;;;;;;;10.43;4.43;;;;;;;;;;4957882;29;20044;-66
2022/03/28 01:37:17;;;;;;;12.35;5.28;;;;;;;;;;4958283;29;20043;-66
2022/03/28 01:39:50;;;;;;;10.65;4.28;;;;;;;;;;4957628;29;20090;-66
2022/03/28 01:42:17;;;;;;;12.15;4.70;;;;;;;;;;4958193;29;20143;-66
2022/03/28 01:44:52;;;;;;;7.70;4.15;;;;;;;;;;4958023;29;20095;-66
2022/03/28 01:47:29;;;;;;;10.13;4.68;;;;;;;;;;4957944;29;20066;-66
2022/03/28 01:50:01;;;;;;;11.73;4.20;;;;;;;;;;4957392;28;20122;-66
2022/03/28 01:52:29;;;;;;;11.73;4.45;;;;;;;;;;4957844;29;20493;-66
2022/03/28 01:54:57;;;;;;;11.27;4.20;;;;;;;;;;4957373;29;20048;-66
2022/03/28 01:57:26;;;;;;;8.38;3.78;;;;;;;;;;4957770;29;20126;-66
2022/03/28 01:59:53;;;;;;;11.20;4.00;;;;;;;;;;4957491;29;20043;-66
2022/03/28 02:02:24;;;;;;;13.93;4.22;;;;;;;;;;4957521;29;20122;-66
2022/03/28 02:04:55;;;;;;;12.43;4.55;;;;;;;;;;4957514;29;20051;-66
2022/03/28 02:07:28;;;;;;;7.28;4.00;;;;;;;;;;4957815;29;20126;-66
2022/03/28 02:09:58;;;;;;;10.02;4.03;;;;;;;;;;4957156;29;20051;-66
2022/03/28 02:12:32;;;;;;;7.75;4.18;;;;;;;;;;4957314;29;20039;-66
2022/03/28 02:14:59;;;;;;;8.57;4.05;;;;;;;;;;4957265;29;20044;-66
2022/03/28 02:17:31;;;;;;;12.02;4.35;;;;;;;;;;4957036;29;20043;-66
2022/03/28 02:20:01;;;;;;;8.80;3.78;;;;;;;;;;4957393;29;20074;-66
2022/03/28 02:22:28;;;;;;;9.90;4.15;;;;;;;;;;4957796;29;20061;-66
2022/03/28 02:25:00;;;;;;;13.13;4.15;;;;;;;;;;4956848;29;20459;-66
2022/03/28 02:27:31;;;;;;;11.32;4.30;;;;;;;;;;4956915;29;20039;-65
2022/03/28 02:30:01;;;;;;;10.52;4.20;;;;;;;;;;4957095;29;20039;-66
2022/03/28 02:32:36;;;;;;;10.45;3.50;;;;;;;;;;4957062;29;20047;-66
2022/03/28 02:35:08;;;;;;;11.85;4.45;;;;;;;;;;4957083;29;20078;-66
2022/03/28 02:37:36;;;;;;;9.85;3.58;;;;;;;;;;4956913;29;20039;-65
2022/03/28 02:40:28;;;;;;;9.93;3.95;;;;;;;;;;4956964;29;20047;-65
2022/03/28 02:47:21;;;;;;;11.80;4.10;;;;;;;;;;4956650;29;20045;-65
2022/03/28 02:49:51;;;;;;;12.13;3.85;;;;;;;;;;4956503;29;20097;-65
2022/03/28 02:52:18;;;;;;;8.52;4.20;;;;;;;;;;4956640;29;20126;-68
2022/03/28 02:54:57;;;;;;;10.05;4.05;;;;;;;;;;4956358;29;20047;-65
2022/03/28 02:57:51;;;;;;;14.32;4.38;;;;;;;;;;4956806;29;20486;-65
2022/03/28 03:00:22;;;;;;;10.88;4.07;;;;;;;;;;4956422;28;20049;-65
2022/03/28 03:02:51;;;;;;;13.93;4.40;;;;;;;;;;4955819;29;20039;-65
2022/03/28 03:05:19;;;;;;;14.27;3.83;;;;;;;;;;4955705;29;20577;-66
2022/03/28 03:07:49;;;;;;;14.38;4.75;;;;;;;;;;4956184;29;20039;-65
2022/03/28 03:10:17;;;;;;;10.63;3.60;;;;;;;;;;4956278;28;20486;-65
2022/03/28 03:12:48;;;;;;;16.25;4.50;;;;;;;;;;4956041;29;20039;-65
2022/03/28 03:15:21;;;;;;;13.00;4.15;;;;;;;;;;4956093;28;20051;-65
2022/03/28 03:17:48;;;;;;;11.65;3.88;;;;;;;;;;4955958;29;20062;-65
2022/03/28 03:20:20;;;;;;;7.10;3.70;;;;;;;;;;4956015;28;20533;-65
2022/03/28 03:22:48;;;;;;;13.07;3.83;;;;;;;;;;4955762;29;20094;-65
2022/03/28 03:25:21;;;;;;;11.40;4.00;;;;;;;;;;4955945;29;20063;-66
2022/03/28 03:27:54;;;;;;;10.63;4.28;;;;;;;;;;4955939;29;20039;-66
2022/03/28 03:30:26;;;;;;;11.55;3.65;;;;;;;;;;4955691;29;20114;-65
2022/03/28 03:32:53;;;;;;;12.15;3.55;;;;;;;;;;4955934;29;20111;-66
2022/03/28 03:35:29;;;;;;;13.38;3.90;;;;;;;;;;4955807;29;20039;-66
2022/03/28 03:38:33;;;;;;;6.57;3.60;;;;;;;;;;4955849;29;20055;-66
2022/03/28 03:41:01;;;;;;;13.23;4.10;;;;;;;;;;4955957;29;20043;-65
2022/03/28 03:43:29;;;;;;;12.05;3.83;;;;;;;;;;4955748;29;20380;-65
2022/03/28 03:46:00;;;;;;;11.85;3.53;;;;;;;;;;4955346;29;20051;-66
2022/03/28 03:48:37;;;;;;;11.52;3.80;;;;;;;;;;4955221;29;20035;-65
2022/03/28 03:51:04;;;;;;;10.50;3.90;;;;;;;;;;4955711;29;20046;-65
2022/03/28 03:53:35;;;;;;;11.30;3.42;;;;;;;;;;4955172;29;20050;-66
2022/03/28 03:56:05;;;;;;;13.18;3.72;;;;;;;;;;4955300;29;20046;-66
2022/03/28 03:58:34;;;;;;;13.00;4.05;;;;;;;;;;4955646;29;20050;-66
2022/03/28 04:01:05;;;;;;;15.38;3.75;;;;;;;;;;4955408;29;20118;-66
2022/03/28 04:03:37;;;;;;;19.52;4.68;;;;;;;;;;4955318;29;20102;-66
2022/03/28 04:06:05;;;;;;;8.00;3.70;;;;;;;;;;4955541;29;20134;-66
2022/03/28 04:08:34;;;;;;;15.13;3.78;;;;;;;;;;4939273;29;20039;-66
2022/03/28 04:11:07;;;;;;;15.35;4.82;;;;;;;;;;4936114;29;20040;-66
2022/03/28 04:13:36;;;;;;;19.27;5.43;;;;;;;;;;4936200;29;20127;-66
2022/03/28 04:16:07;;;;;;;13.70;3.75;;;;;;;;;;4936559;29;20410;-65
2022/03/28 04:18:37;;;;;;;9.68;4.03;;;;;;;;;;4935966;29;20036;-65
2022/03/28 04:21:05;;;;;;;10.63;3.92;;;;;;;;;;4950719;29;20044;-65
2022/03/28 04:23:33;;;;;;;15.57;4.10;;;;;;;;;;4934605;29;20064;-66
2022/03/28 04:26:00;;;;;;;13.73;4.55;;;;;;;;;;4934967;29;20047;-66
2022/03/28 04:28:28;;;;;;;11.95;3.63;;;;;;;;;;4934699;29;20410;-66
2022/03/28 04:30:56;;;;;;;12.73;4.15;;;;;;;;;;4934264;29;20048;-66
2022/03/28 04:33:24;;;;;;;14.23;4.13;;;;;;;;;;4935323;29;20382;-66
2022/03/28 04:35:51;;;;;;;12.30;4.47;;;;;;;;;;4935633;29;20116;-66
2022/03/28 04:38:24;;;;;;;18.80;4.38;;;;;;;;;;4935311;29;20036;-65
2022/03/28 04:40:53;;;;;;;14.27;4.07;;;;;;;;;;4935630;29;20042;-65
2022/03/28 04:43:23;;;;;;;12.43;4.75;;;;;;;;;;4935845;29;20043;-65
2022/03/28 04:45:55;;;;;;;13.95;4.03;;;;;;;;;;4935884;29;20056;-65
2022/03/28 04:48:23;;;;;;;14.85;4.05;;;;;;;;;;4935863;29;20036;-66
2022/03/28 04:50:51;;;;;;;12.75;4.65;;;;;;;;;;4940173;29;20394;-66
2022/03/28 04:53:18;;;;;;;10.15;3.97;;;;;;;;;;4949931;29;20082;-65
2022/03/28 04:55:48;;;;;;;11.48;3.92;;;;;;;;;;4947098;29;20039;-65
2022/03/28 04:58:19;;;;;;;17.88;4.13;;;;;;;;;;4954771;29;20046;-65
2022/03/28 05:00:46;;;;;;;13.65;5.25;;;;;;;;;;4954658;29;20035;-65
2022/03/28 05:03:15;;;;;;;18.02;4.03;;;;;;;;;;4954872;29;20054;-65
2022/03/28 05:05:43;;;;;;;12.10;4.70;;;;;;;;;;4954706;29;20073;-65
2022/03/28 05:08:13;;;;;;;13.07;4.10;;;;;;;;;;4954767;29;20040;-65
2022/03/28 05:10:43;;;;;;;14.98;4.10;;;;;;;;;;4954591;29;20050;-66
2022/03/28 05:13:11;;;;;;;16.40;4.40;;;;;;;;;;4954829;29;20050;-66
2022/03/28 05:15:43;;;;;;;16.27;4.32;;;;;;;;;;4954545;29;20557;-66
2022/03/28 05:18:36;;;;;;;12.07;4.82;;;;;;;;;;4954587;29;20047;-66
2022/03/28 05:21:04;;;;;;;11.15;4.28;;;;;;;;;;4948449;29;20053;-65
2022/03/28 05:23:32;;;;;;;19.10;5.65;;;;;;;;;;4937057;29;20074;-67
2022/03/28 05:26:03;;;;;;;14.23;4.55;;;;;;;;;;4938368;29;20046;-67
2022/03/28 05:28:33;;;;;;;13.65;4.72;;;;;;;;;;4939289;29;20040;-67
2022/03/28 05:31:04;;;;;;;17.80;5.68;;;;;;;;;;4939327;29;20044;-67
2022/03/28 05:33:37;;;;;;;12.32;4.75;;;;;;;;;;4947565;29;20451;-66
2022/03/28 05:36:11;;;;;;;12.02;5.00;;;;;;;;;;4941369;29;20123;-68
2022/03/28 05:38:41;;;;;;;21.05;7.53;;;;;;;;;;4938818;29;20051;-67
2022/03/28 05:41:11;;;;;;;16.25;5.22;;;;;;;;;;4938693;29;20160;-65
2022/03/28 05:43:43;;;;;;;18.45;5.25;;;;;;;;;;4938693;29;20134;-66
2022/03/28 05:46:12;;;;;;;16.13;5.25;;;;;;;;;;4938986;29;20099;-66
2022/03/28 05:48:40;;;;;;;12.35;4.93;;;;;;;;;;4938382;29;20047;-66
2022/03/28 05:51:11;;;;;;;15.30;4.82;;;;;;;;;;4938325;29;20217;-65
2022/03/28 05:53:39;;;;;;;19.98;5.25;;;;;;;;;;4938856;29;20050;-65
2022/03/28 05:56:08;;;;;;;14.13;4.18;;;;;;;;;;4938231;29;20044;-65
2022/03/28 05:58:39;;;;;;;12.40;5.13;;;;;;;;;;4938399;29;20047;-65
2022/03/28 06:01:08;;;;;;;14.93;5.32;;;;;;;;;;4938512;29;20036;-65
2022/03/28 06:03:40;;;;;;;12.65;4.80;;;;;;;;;;4938288;29;20032;-67
2022/03/28 06:06:15;;;;;;;12.93;4.97;;;;;;;;;;4938355;29;20060;-66
2022/03/28 06:08:43;;;;;;;11.70;4.97;;;;;;;;;;4938372;29;20105;-65
2022/03/28 06:11:13;;;;;;;16.67;5.13;;;;;;;;;;4938626;29;20047;-65
2022/03/28 06:13:42;;;;;;;20.35;5.20;;;;;;;;;;4938467;29;20047;-66
2022/03/28 06:16:15;;;;;;;17.80;5.55;;;;;;;;;;4938225;29;20047;-66
2022/03/28 06:18:43;;;;;;;18.17;4.75;;;;;;;;;;4938755;29;20036;-66
2022/03/28 06:21:12;;;;;;;14.88;4.47;;;;;;;;;;4937861;29;20040;-66
2022/03/28 06:23:40;;;;;;;16.30;4.45;;;;;;;;;;4936953;29;20048;-66
2022/03/28 06:26:10;;;;;;;12.80;4.78;;;;;;;;;;4937856;29;20047;-65
2022/03/28 06:28:46;;;;;;;15.18;4.60;;;;;;;;;;4937777;29;20127;-66
2022/03/28 06:31:18;;;;;;;18.15;5.00;;;;;;;;;;4938068;29;20499;-66
2022/03/28 06:34:01;;;;;;;12.00;4.85;;;;;;;;;;4938289;29;20043;-66
2022/03/28 06:36:31;;;;;;;14.23;5.03;;;;;;;;;;4936682;29;20160;-66
2022/03/28 06:39:02;;;;;;;18.10;8.70;;;;;;;;;;4937922;29;20043;-66
2022/03/28 06:41:31;;;;;;;12.43;5.82;;;;;;;;;;4938159;29;20039;-66
2022/03/28 06:44:01;;;;;;;18.75;6.18;;;;;;;;;;4937672;29;20048;-66
2022/03/28 06:46:33;;;;;;;16.05;6.95;;;;;;;;;;4937629;29;20155;-66
2022/03/28 06:49:02;;;;;;;17.15;5.72;;;;;;;;;;4937895;29;20086;-66
2022/03/28 06:51:33;;;;;;;10.52;4.43;;;;;;;;;;4937348;29;20082;-66
2022/03/28 06:54:05;;;;;;;18.63;5.57;;;;;;;;;;4937529;29;20044;-67
2022/03/28 06:56:34;;;;;;;15.05;6.03;;;;;;;;;;4937393;29;20054;-66
2022/03/28 06:59:03;;;;;;;11.52;5.13;;;;;;;;;;4937127;29;20529;-66
2022/03/28 07:01:36;;;;;;;22.63;5.70;;;;;;;;;;4937634;29;20048;-66
2022/03/28 07:04:05;;;;;;;11.10;5.18;;;;;;;;;;4937532;29;20464;-67
2022/03/28 07:06:35;;;;;;;17.15;7.03;;;;;;;;;;4937007;29;20048;-66
2022/03/28 07:09:06;;;;;;;19.67;6.07;;;;;;;;;;4937122;29;20115;-66
2022/03/28 07:11:35;;;;;;;10.75;5.03;;;;;;;;;;4937109;29;20114;-67
2022/03/28 07:14:05;;;;;;;12.23;5.38;;;;;;;;;;4937099;29;20048;-66
2022/03/28 07:16:38;;;;;;;11.70;5.65;;;;;;;;;;4937435;29;20058;-67
2022/03/28 07:19:07;;;;;;;16.23;5.78;;;;;;;;;;4937564;29;20047;-67
2022/03/28 07:21:36;;;;;;;13.55;6.30;;;;;;;;;;4936949;29;20043;-67
2022/03/28 07:24:04;;;;;;;16.15;7.18;;;;;;;;;;4937046;29;20086;-67
2022/03/28 07:26:56;;;;;;;10.05;5.22;;;;;;;;;;4936606;29;20048;-67
2022/03/28 07:29:28;;;;;;;13.10;6.30;;;;;;;;;;4936726;29;20064;-67
2022/03/28 07:32:04;;;;;;;9.43;5.80;;;;;;;;;;4936718;29;20122;-67
2022/03/28 07:34:35;;;;;;;14.05;6.88;;;;;;;;;;4936935;29;20091;-67
2022/03/28 07:37:05;;;;;;;11.07;6.75;;;;;;;;;;4937056;29;20039;-67
2022/03/28 07:39:37;;;;;;;11.65;6.68;;;;;;;;;;4936457;29;20458;-67
2022/03/28 07:42:11;;;;;;;12.98;7.38;;;;;;;;;;4936869;29;20044;-66
2022/03/28 07:45:05;;;;;;;13.80;7.10;;;;;;;;;;4936671;29;20074;-65
2022/03/28 07:47:58;;;;;;;13.48;7.05;;;;;;;;;;4936176;29;20487;-65
2022/03/28 07:50:28;;;;;;;12.93;7.72;;;;;;;;;;4936406;29;20086;-66
2022/03/28 07:52:56;;;;;;;14.10;7.07;;;;;;;;;;4936159;29;20048;-66
2022/03/28 07:58:36;;;;;;;11.57;6.78;;;;;;;;;;4936193;29;20083;-65
2022/03/28 08:01:44;;;;;;;16.88;7.32;;;;;;;;;;4935758;29;20379;-67
2022/03/28 08:04:12;;;;;;;14.80;7.25;;;;;;;;;;4936279;29;20054;-67
2022/03/28 08:06:40;;;;;;;18.73;8.60;;;;;;;;;;4935851;29;20099;-65
2022/03/28 08:09:10;;;;;;;22.52;9.10;;;;;;;;;;4935917;29;20039;-67
2022/03/28 08:11:42;;;;;;;18.73;8.07;;;;;;;;;;4936186;29;20075;-67
2022/03/28 08:14:11;;;;;;;16.85;8.57;;;;;;;;;;4936048;29;20083;-67
2022/03/28 08:16:43;;;;;;;16.05;8.10;;;;;;;;;;4936379;29;20150;-67
2022/03/28 08:19:11;;;;;;;16.27;8.35;;;;;;;;;;4936004;29;20119;-67
2022/03/28 08:22:04;;;;;;;13.93;7.80;;;;;;;;;;4935926;29;20498;-67
2022/03/28 08:24:32;;;;;;;11.82;7.63;;;;;;;;;;4935925;29;20058;-65
2022/03/28 08:27:24;;;;;;;15.20;7.88;;;;;;;;;;4936119;29;20487;-66
2022/03/28 08:29:56;;;;;;;16.33;7.88;;;;;;;;;;4936795;29;20447;-65
2022/03/28 08:32:31;;;;;;;16.95;8.88;;;;;;;;;;4936072;29;20054;-66
2022/03/28 08:35:04;;;;;;;17.00;8.07;;;;;;;;;;4935922;29;20035;-65
2022/03/28 08:37:32;;;;;;;13.65;7.82;;;;;;;;;;4936188;29;20466;-66
2022/03/28 08:40:00;;;;;;;15.85;8.13;;;;;;;;;;4935857;29;20044;-66
2022/03/28 08:42:30;;;;;;;20.73;8.82;;;;;;;;;;4935799;29;20080;-66
2022/03/28 08:45:03;;;;;;;20.73;9.30;;;;;;;;;;4936016;29;20044;-66
2022/03/28 08:47:32;;;;;;;16.63;8.25;;;;;;;;;;4936019;29;20147;-66
2022/03/28 08:50:22;;;;;;;27.20;9.55;;;;;;;;;;4935652;29;20043;-66
2022/03/28 08:52:49;;;;;;;14.55;8.35;;;;;;;;;;4935763;29;20059;-66
2022/03/28 08:55:18;;;;;;;15.32;8.60;;;;;;;;;;4935683;29;20051;-66
2022/03/28 08:58:11;;;;;;;20.05;8.70;;;;;;;;;;4935701;29;20050;-66
2022/03/28 09:00:42;;;;;;;17.55;8.27;;;;;;;;;;4938436;29;20047;-66
2022/03/28 09:03:18;;;;;;;13.90;10.00;;;;;;;;;;4939376;29;20043;-66
2022/03/28 09:05:50;;;;;;;16.85;9.77;;;;;;;;;;4939391;29;20078;-66
2022/03/28 09:08:17;;;;;;;17.60;8.95;;;;;;;;;;4939213;29;20132;-66
2022/03/28 09:10:47;;;;;;;15.60;9.52;;;;;;;;;;4939308;29;20039;-67
2022/03/28 09:13:19;;;;;;;17.15;9.65;;;;;;;;;;4939283;29;20062;-65
2022/03/28 09:15:51;;;;;;;13.68;8.90;;;;;;;;;;4939092;29;20079;-66
2022/03/28 09:18:23;;;;;;;17.33;8.82;;;;;;;;;;4939165;29;20067;-66
2022/03/28 09:21:00;;;;;;;19.70;9.85;;;;;;;;;;4939505;29;20435;-66
2022/03/28 09:23:30;;;;;;;17.48;9.15;;;;;;;;;;4938899;29;20590;-66
2022/03/28 09:26:00;;;;;;;16.20;8.40;;;;;;;;;;4938981;29;20103;-66
2022/03/28 09:28:56;;;;;;;16.10;9.10;;;;;;;;;;4939090;29;20063;-65
2022/03/28 09:31:27;;;;;;;16.95;9.73;;;;;;;;;;4939058;29;20123;-66
2022/03/28 09:34:23;;;;;;;16.85;9.45;;;;;;;;;;4938755;29;20052;-65
2022/03/28 09:36:53;;;;;;;;;;;;;;;;;;4936257;29;20066;-65
2022/03/28 09:39:26;;;;;;;15.25;9.07;;;;;;;;;;4938923;29;19927;-66
2022/03/28 09:42:12;;;;;;;17.08;9.40;;;;;;;;;;4939607;29;20051;-66
2022/03/28 09:44:44;;;;;;;17.40;9.68;;;;;;;;;;4938609;29;20079;-67
2022/03/28 09:47:19;;;;;;;16.48;9.25;;;;;;;;;;4938632;29;20047;-65
2022/03/28 09:49:50;;;;;;;19.58;9.30;;;;;;;;;;4938571;29;20122;-67
2022/03/28 09:52:19;;;;;;;18.48;9.60;;;;;;;;;;4938860;29;20043;-66
2022/03/28 09:55:12;;;;;;;21.08;10.77;;;;;;;;;;4938507;29;20047;-66
2022/03/28 09:57:44;;;;;;;19.17;9.82;;;;;;;;;;4938456;29;20392;-65
2022/03/28 10:00:19;;;;;;;18.20;9.25;;;;;;;;;;4938330;29;20547;-66
2022/03/28 10:02:47;;;;;;;14.88;9.80;;;;;;;;;;4938753;29;20036;-67
2022/03/28 10:05:15;;;;;;;19.73;9.65;;;;;;;;;;4937993;29;20047;-67
2022/03/28 10:07:42;;;;;;;17.70;9.68;;;;;;;;;;4938429;29;20048;-67
2022/03/28 10:10:15;;;;;;;15.35;9.20;;;;;;;;;;4938211;29;20039;-67
2022/03/28 10:12:43;;;;;;;12.85;8.93;;;;;;;;;;4938275;29;20047;-67
2022/03/28 10:15:15;;;;;;;17.77;9.85;;;;;;;;;;4938105;29;20106;-67
2022/03/28 10:17:51;;;;;;;14.82;9.82;;;;;;;;;;4938683;29;20114;-67
2022/03/28 10:20:20;;;;;;;16.10;9.40;;;;;;;;;;4937982;29;20406;-67
2022/03/28 10:23:04;;;;;;;15.27;9.82;;;;;;;;;;4937821;29;20103;-67
2022/03/28 10:25:38;;;;;;;15.48;9.73;;;;;;;;;;4937692;29;20055;-67
2022/03/28 10:28:06;;;;;;;22.90;10.80;;;;;;;;;;4938179;29;20040;-67
2022/03/28 10:30:35;;;;;;;15.32;10.38;;;;;;;;;;4937759;29;20039;-67
2022/03/28 10:33:16;;;;;;;17.88;9.77;;;;;;;;;;4937961;29;20035;-67
2022/03/28 10:35:58;;;;;;;16.83;9.48;;;;;;;;;;4938253;29;20043;-67
2022/03/28 10:38:27;;;;;;;21.27;11.07;;;;;;;;;;4937484;29;20058;-66
2022/03/28 10:41:05;;;;;;;12.82;10.00;;;;;;;;;;4937386;29;20051;-67
2022/03/28 10:43:37;;;;;;;17.98;11.02;;;;;;;;;;4937534;29;20462;-67
2022/03/28 10:46:09;;;;;;;16.10;10.15;;;;;;;;;;4937860;29;20114;-67
2022/03/28 10:48:47;;;;;;;15.00;9.73;;;;;;;;;;4937229;29;20047;-67
2022/03/28 10:51:18;;;;;;;18.52;10.65;;;;;;;;;;4937146;29;20052;-67
2022/03/28 10:53:58;;;;;;;22.02;11.02;;;;;;;;;;4937566;29;20048;-67
2022/03/28 10:56:36;;;;;;;22.70;11.07;;;;;;;;;;4937666;29;20098;-67
2022/03/28 10:59:08;;;;;;;21.05;10.88;;;;;;;;;;4936997;29;20406;-67
2022/03/28 11:01:41;;;;;;;16.15;10.25;;;;;;;;;;4937528;29;20044;-67
2022/03/28 11:04:22;;;;;;;17.38;10.30;;;;;;;;;;4937462;29;20071;-67
2022/03/28 11:07:00;;;;;;;16.58;10.48;;;;;;;;;;4937455;29;20503;-67
2022/03/28 11:09:42;;;;;;;15.05;10.30;;;;;;;;;;4937077;29;20040;-67
2022/03/28 11:12:14;;;;;;;15.45;9.95;;;;;;;;;;4937871;29;20455;-68
2022/03/28 11:14:50;;;;;;;17.90;10.88;;;;;;;;;;4937158;29;20127;-67
2022/03/28 11:17:21;;;;;;;17.25;10.48;;;;;;;;;;4937260;29;20044;-68
2022/03/28 11:19:52;;;;;;;20.63;11.60;;;;;;;;;;4936754;29;20035;-67
2022/03/28 11:22:38;;;;;;;19.23;10.27;;;;;;;;;;4936536;29;20039;-67
2022/03/28 11:25:06;;;;;;;13.02;9.95;;;;;;;;;;4936515;29;20153;-67
2022/03/28 11:27:58;;;;;;;15.98;9.75;;;;;;;;;;4936490;29;20106;-67
2022/03/28 11:30:28;;;;;;;16.73;10.10;;;;;;;;;;4936745;29;20053;-66
2022/03/28 11:32:56;;;;;;;14.05;9.95;;;;;;;;;;4936730;29;20048;-67
2022/03/28 11:35:24;;;;;;;18.27;10.45;;;;;;;;;;4936576;29;20495;-67
2022/03/28 11:37:54;;;;;;;15.30;8.95;;;;;;;;;;4936646;29;20052;-67
2022/03/28 11:40:36;;;;;;;18.33;9.80;;;;;;;;;;4936904;29;20050;-65
2022/03/28 11:43:05;;;;;;;16.45;9.25;;;;;;;;;;4936687;29;20063;-67
2022/03/28 11:45:45;;;;;;;14.88;10.88;;;;;;;;;;4936294;29;20044;-68
2022/03/28 11:48:18;;;;;;;20.95;10.90;;;;;;;;;;4936351;29;20062;-67
2022/03/28 11:50:53;;;;;;;17.80;10.35;;;;;;;;;;4936595;29;20102;-66
2022/03/28 11:53:21;;;;;;;17.77;10.40;;;;;;;;;;4936325;29;20071;-66
2022/03/28 11:55:54;;;;;;;17.05;10.02;;;;;;;;;;4936402;29;20047;-68
2022/03/28 11:58:32;;;;;;;20.38;10.32;;;;;;;;;;4936689;29;20050;-67
2022/03/28 12:01:07;;;;;;;15.48;9.65;;;;;;;;;;4936276;29;20042;-70
2022/03/28 12:03:57;;;;;;;23.00;9.90;;;;;;;;;;4936337;29;20047;-67
2022/03/28 12:06:27;;;;;;;19.38;9.52;;;;;;;;;;4936196;29;20039;-67
2022/03/28 12:09:04;;;;;;;16.42;10.23;;;;;;;;;;4936346;29;20040;-67
2022/03/28 12:11:35;;;;;;;15.85;9.63;;;;;;;;;;4936447;29;20043;-67
2022/03/28 12:14:07;;;;;;;21.15;9.75;;;;;;;;;;4935980;29;20043;-67
2022/03/28 12:17:01;;;;;;;21.02;9.93;;;;;;;;;;4936357;29;20048;-67
2022/03/28 12:19:31;;;;;;;15.23;9.40;;;;;;;;;;4934640;29;20400;-67
2022/03/28 12:22:25;;;;;;;16.55;10.48;;;;;;;;;;4935866;29;20055;-67
2022/03/28 12:24:53;;;;;;;16.10;9.77;;;;;;;;;;4935601;29;20071;-68
2022/03/28 12:27:25;;;;;;;21.10;13.45;;;;;;;;;;4935685;29;20082;-67
2022/03/28 12:30:01;;;;;;;22.52;11.13;;;;;;;;;;4936156;29;20119;-67
2022/03/28 12:32:30;;;;;;;19.00;11.20;;;;;;;;;;4936035;29;20482;-67
2022/03/28 12:35:04;;;;;;;17.17;9.68;;;;;;;;;;4937369;29;20047;-68
2022/03/28 12:37:36;;;;;;;15.73;9.73;;;;;;;;;;4939929;29;20075;-67
2022/03/28 12:40:05;;;;;;;15.13;9.70;;;;;;;;;;4939732;29;20062;-67
2022/03/28 12:42:43;;;;;;;18.75;9.50;;;;;;;;;;4939517;29;20086;-67
2022/03/28 12:45:13;;;;;;;19.05;10.15;;;;;;;;;;4939718;29;20040;-67
2022/03/28 12:47:55;;;;;;;17.00;9.85;;;;;;;;;;4939814;29;20043;-67
2022/03/28 12:50:26;;;;;;;17.75;9.65;;;;;;;;;;4939729;29;20054;-67
2022/03/28 12:53:13;;;;;;;15.02;10.30;;;;;;;;;;4939615;29;20122;-67
2022/03/28 12:55:45;;;;;;;17.92;10.48;;;;;;;;;;4938358;29;20455;-67
2022/03/28 12:58:15;;;;;;;17.10;10.45;;;;;;;;;;4939592;29;20056;-67
2022/03/28 13:00:44;;;;;;;17.90;9.65;;;;;;;;;;4939682;29;20044;-67
2022/03/28 13:03:40;;;;;;;23.48;10.00;;;;;;;;;;4939333;29;20454;-67
2022/03/28 13:06:13;;;;;;;;;;;;;;;;;;4937473;29;20071;-67
2022/03/28 13:08:41;;;;;;;18.75;10.32;;;;;;;;;;4939312;29;19978;-67
2022/03/28 13:11:15;;;;;;;16.77;10.25;;;;;;;;;;4940203;29;20050;-67
2022/03/28 13:13:47;;;;;;;20.50;10.07;;;;;;;;;;4939097;29;20099;-68
2022/03/28 13:19:19;;;;;;;13.57;8.77;;;;;;;;;;4967243;28;20058;-66
2022/03/28 13:21:47;;;;;;;14.45;8.77;;;;;;;;;;4977654;28;20094;-66
2022/03/28 13:24:15;;;;;;;15.40;8.68;;;;;;;;;;4977254;28;20560;-66
2022/03/28 13:26:47;;;;;;;18.58;8.60;;;;;;;;;;4977698;28;20089;-69
2022/03/28 13:29:21;;;;;;;14.45;8.40;;;;;;;;;;4977074;28;20089;-66
2022/03/28 13:31:50;;;;;;;15.45;8.70;;;;;;;;;;4977262;28;20097;-66
2022/03/28 13:34:25;;;;;;;16.40;8.40;;;;;;;;;;4977153;28;20070;-67
2022/03/28 13:37:18;;;;;;;17.30;8.80;;;;;;;;;;4976322;28;20042;-66
2022/03/28 13:40:11;;;;;;;13.63;9.75;;;;;;;;;;4977224;28;20074;-67
2022/03/28 13:42:39;;;;;;;20.58;10.07;;;;;;;;;;4976985;28;20043;-67
2022/03/28 13:45:09;;;;;;;15.20;10.68;;;;;;;;;;4976513;28;20035;-66
2022/03/28 13:47:36;;;;;;;14.82;8.55;;;;;;;;;;4976451;28;20085;-70
2022/03/28 13:50:05;;;;;;;17.67;9.02;;;;;;;;;;4977300;28;20097;-66
2022/03/28 13:52:33;;;;;;;17.00;9.18;;;;;;;;;;4975893;28;20462;-67
2022/03/28 13:55:04;;;;;;;13.77;9.32;;;;;;;;;;4959485;28;20049;-67
2022/03/28 13:57:32;;;;;;;17.65;10.50;;;;;;;;;;4976804;28;20551;-66
2022/03/28 14:00:00;;;;;;;14.18;9.13;;;;;;;;;;4976779;28;20057;-66
2022/03/28 14:02:52;;;;;;;11.80;8.70;;;;;;;;;;4976579;28;20077;-66
2022/03/28 14:05:26;;;;;;;20.08;10.52;;;;;;;;;;4976788;28;20042;-67
2022/03/28 14:07:54;;;;;;;16.80;9.20;;;;;;;;;;4976134;28;20046;-68
2022/03/28 14:10:21;;;;;;;19.10;9.48;;;;;;;;;;4974307;28;20038;-68
2022/03/28 14:12:49;;;;;;;14.30;9.57;;;;;;;;;;4974569;28;20090;-68
2022/03/28 14:15:18;;;;;;;15.10;9.80;;;;;;;;;;4967348;28;20043;-68
2022/03/28 14:17:46;;;;;;;17.50;11.35;;;;;;;;;;4972473;28;20045;-69
2022/03/28 14:20:15;;;;;;;34.25;19.33;;;;;;;;;;4972539;28;20487;-68
2022/03/28 14:22:43;;;;;;;28.08;15.75;;;;;;;;;;4976483;28;20053;-68
2022/03/28 14:25:13;;;;;;;19.95;12.77;;;;;;;;;;4975617;28;20482;-68
2022/03/28 14:27:40;;;;;;;18.73;11.73;;;;;;;;;;4976106;28;20424;-68
2022/03/28 14:30:09;;;;;;;31.75;17.00;;;;;;;;;;4976592;28;20053;-68
2022/03/28 14:32:37;;;;;;;15.95;9.65;;;;;;;;;;4976377;28;20451;-68
2022/03/28 14:35:13;;;;;;;14.10;9.32;;;;;;;;;;4976122;28;20449;-68
2022/03/28 14:37:41;;;;;;;17.88;9.77;;;;;;;;;;4975236;28;20043;-68
2022/03/28 14:40:09;;;;;;;19.95;10.50;;;;;;;;;;4975883;28;20038;-68
2022/03/28 14:42:40;;;;;;;17.95;9.50;;;;;;;;;;4976013;28;20073;-68
2022/03/28 14:45:09;;;;;;;17.20;10.13;;;;;;;;;;4976048;28;20046;-68
2022/03/28 14:47:37;;;;;;;18.25;10.60;;;;;;;;;;4975849;28;20374;-68
2022/03/28 14:50:06;;;;;;;21.15;11.15;;;;;;;;;;4975750;28;20054;-68
2022/03/28 14:52:34;;;;;;;19.23;9.20;;;;;;;;;;4974795;28;20130;-66
2022/03/28 14:55:03;;;;;;;18.70;9.85;;;;;;;;;;4975465;28;20050;-66
2022/03/28 14:57:31;;;;;;;15.43;10.20;;;;;;;;;;4975089;28;20070;-66
2022/03/28 15:00:09;;;;;;;21.83;10.20;;;;;;;;;;4972873;28;20042;-67
2022/03/28 15:02:36;;;;;;;17.75;10.27;;;;;;;;;;4971107;28;20047;-66
2022/03/28 15:05:06;;;;;;;15.30;9.77;;;;;;;;;;4975260;28;20039;-66
2022/03/28 15:07:33;;;;;;;19.13;10.18;;;;;;;;;;4973933;28;20093;-66
2022/03/28 15:10:03;;;;;;;18.77;9.15;;;;;;;;;;4975511;28;20499;-66
2022/03/28 15:12:32;;;;;;;16.27;8.93;;;;;;;;;;4975766;28;20039;-66
2022/03/28 15:15:06;;;;;;;16.98;8.90;;;;;;;;;;4975131;28;20576;-66